Time;durP1;ratioP1;P1;durP2;ratioP2;P2;SDS_P1;SDS_P2;PMS_P1;PMS_P2;Temp;Humidity;BMP_temperature;BMP_pressure;BME280_temperature;BME280_humidity;BME280_pressure;Samples;Min_cycle;Max_cycle;Signal;HPM_P1;HPM_P2
2022/05/13 00:01:52;;;;;;;0.70;0.35;;;;;;;;;;5038998;28;20021;-76
2022/05/13 00:04:18;;;;;;;0.32;0.28;;;;;;;;;;5045341;28;20592;-76
2022/05/13 00:06:44;;;;;;;0.57;0.45;;;;;;;;;;5037403;28;20836;-76
2022/05/13 00:09:10;;;;;;;0.70;0.70;;;;;;;;;;5047172;28;20040;-76
2022/05/13 00:11:36;;;;;;;0.65;0.65;;;;;;;;;;5046803;28;20527;-76
2022/05/13 00:14:02;;;;;;;0.40;0.40;;;;;;;;;;5042087;28;20044;-76
2022/05/13 00:16:28;;;;;;;0.57;0.32;;;;;;;;;;5043236;28;20448;-77
2022/05/13 00:18:54;;;;;;;0.57;0.50;;;;;;;;;;5047949;28;20056;-76
2022/05/13 00:21:20;;;;;;;0.17;0.17;;;;;;;;;;5044233;28;20026;-76
2022/05/13 00:23:46;;;;;;;1.33;1.23;;;;;;;;;;5043175;28;20029;-76
2022/05/13 00:26:12;;;;;;;1.30;0.60;;;;;;;;;;5045976;28;20017;-76
2022/05/13 00:28:38;;;;;;;1.25;1.10;;;;;;;;;;5045274;28;20494;-76
2022/05/13 00:31:05;;;;;;;0.50;0.50;;;;;;;;;;5047711;28;20116;-77
2022/05/13 00:33:32;;;;;;;0.40;0.40;;;;;;;;;;5046076;28;20043;-77
2022/05/13 00:35:57;;;;;;;1.17;0.15;;;;;;;;;;5046812;28;20041;-77
2022/05/13 00:38:25;;;;;;;0.32;0.32;;;;;;;;;;5048141;28;20424;-77
2022/05/13 00:40:51;;;;;;;0.77;0.57;;;;;;;;;;5046724;28;20432;-76
2022/05/13 00:43:36;;;;;;;0.80;0.25;;;;;;;;;;5042004;28;20036;-76
2022/05/13 00:46:03;;;;;;;0.63;0.32;;;;;;;;;;5048197;28;20025;-77
2022/05/13 00:48:29;;;;;;;0.60;0.60;;;;;;;;;;5045395;28;20036;-77
2022/05/13 00:50:55;;;;;;;0.30;0.30;;;;;;;;;;5042013;28;20021;-76
2022/05/13 00:53:21;;;;;;;0.70;0.32;;;;;;;;;;5041646;28;20467;-76
2022/05/13 00:55:47;;;;;;;0.65;0.65;;;;;;;;;;5041739;28;20104;-76
2022/05/13 00:58:15;;;;;;;0.57;0.57;;;;;;;;;;5045039;28;20061;-76
2022/05/13 01:00:41;;;;;;;3.25;0.52;;;;;;;;;;5045743;28;20381;-76
2022/05/13 01:03:07;;;;;;;0.57;0.57;;;;;;;;;;5045192;28;20371;-77
2022/05/13 01:05:34;;;;;;;0.35;0.25;;;;;;;;;;5041719;28;20501;-76
2022/05/13 01:08:04;;;;;;;0.40;0.32;;;;;;;;;;5047262;28;20442;-76
2022/05/13 01:10:30;;;;;;;0.32;0.28;;;;;;;;;;5043215;28;20112;-76
2022/05/13 01:12:57;;;;;;;1.17;0.68;;;;;;;;;;5044863;28;20484;-76
2022/05/13 01:15:26;;;;;;;0.40;0.40;;;;;;;;;;5041317;28;20120;-76
2022/05/13 01:18:05;;;;;;;0.45;0.45;;;;;;;;;;5041993;28;20035;-77
2022/05/13 01:20:33;;;;;;;0.52;0.52;;;;;;;;;;5046761;28;20025;-76
2022/05/13 01:23:02;;;;;;;0.75;0.45;;;;;;;;;;5047729;28;20428;-76
2022/05/13 01:25:29;;;;;;;1.77;0.98;;;;;;;;;;5038129;28;20083;-77
2022/05/13 01:27:56;;;;;;;0.82;0.60;;;;;;;;;;5036596;28;20037;-77
2022/05/13 01:30:24;;;;;;;1.08;1.02;;;;;;;;;;5047485;28;20033;-77
2022/05/13 01:32:50;;;;;;;1.00;1.00;;;;;;;;;;5043661;28;20036;-76
2022/05/13 01:35:17;;;;;;;0.22;0.22;;;;;;;;;;5047781;28;20029;-77
2022/05/13 01:37:43;;;;;;;0.32;0.32;;;;;;;;;;5043875;28;20047;-77
2022/05/13 01:40:09;;;;;;;1.08;0.95;;;;;;;;;;5046869;28;20024;-77
2022/05/13 01:42:35;;;;;;;0.57;0.57;;;;;;;;;;5046749;28;20037;-76
2022/05/13 01:45:01;;;;;;;0.55;0.40;;;;;;;;;;5046989;28;20116;-76
2022/05/13 01:47:28;;;;;;;0.43;0.35;;;;;;;;;;5046702;28;20525;-76
2022/05/13 01:49:54;;;;;;;0.70;0.70;;;;;;;;;;5043577;28;20401;-76
2022/05/13 01:52:20;;;;;;;0.32;0.30;;;;;;;;;;5041568;28;20041;-77
2022/05/13 01:54:46;;;;;;;0.82;0.40;;;;;;;;;;5048390;28;20024;-77
2022/05/13 01:57:12;;;;;;;0.30;0.30;;;;;;;;;;5046952;28;20037;-77
2022/05/13 01:59:38;;;;;;;0.65;0.65;;;;;;;;;;5047888;28;20101;-76
2022/05/13 02:02:04;;;;;;;0.57;0.55;;;;;;;;;;5048767;28;20093;-76
2022/05/13 02:04:30;;;;;;;1.02;0.60;;;;;;;;;;5049897;28;20056;-77
2022/05/13 02:06:56;;;;;;;0.43;0.43;;;;;;;;;;5048021;28;20024;-77
2022/05/13 02:09:22;;;;;;;0.28;0.28;;;;;;;;;;5050930;28;20040;-76
2022/05/13 02:11:48;;;;;;;0.50;0.50;;;;;;;;;;5044636;28;20049;-77
2022/05/13 02:14:14;;;;;;;0.30;0.30;;;;;;;;;;5041388;28;20383;-77
2022/05/13 02:16:40;;;;;;;0.85;0.85;;;;;;;;;;5044518;28;20120;-76
2022/05/13 02:19:06;;;;;;;0.52;0.52;;;;;;;;;;5044069;28;20163;-77
2022/05/13 02:21:32;;;;;;;0.25;0.25;;;;;;;;;;5043574;28;20477;-77
2022/05/13 02:23:58;;;;;;;0.47;0.47;;;;;;;;;;5045339;28;20021;-76
2022/05/13 02:26:24;;;;;;;0.77;0.50;;;;;;;;;;5050643;28;20110;-76
2022/05/13 02:28:50;;;;;;;5.35;1.15;;;;;;;;;;5050898;28;20033;-76
2022/05/13 02:31:16;;;;;;;0.40;0.40;;;;;;;;;;5049564;28;20108;-76
2022/05/13 02:33:43;;;;;;;0.50;0.40;;;;;;;;;;5050680;28;20507;-76
2022/05/13 02:36:10;;;;;;;0.63;0.60;;;;;;;;;;5048181;28;20257;-76
2022/05/13 02:38:36;;;;;;;0.88;0.70;;;;;;;;;;5039275;28;20029;-76
2022/05/13 02:41:11;;;;;;;0.52;0.30;;;;;;;;;;5048889;28;20044;-76
2022/05/13 02:43:37;;;;;;;0.52;0.47;;;;;;;;;;5050647;28;20033;-76
2022/05/13 02:46:03;;;;;;;0.50;0.50;;;;;;;;;;5049983;28;20102;-76
2022/05/13 02:48:29;;;;;;;0.30;0.30;;;;;;;;;;5049052;28;20387;-76
2022/05/13 02:50:55;;;;;;;0.20;0.20;;;;;;;;;;5042299;28;20026;-76
2022/05/13 02:53:21;;;;;;;2.28;0.77;;;;;;;;;;5043552;28;20047;-76
2022/05/13 02:55:47;;;;;;;0.38;0.38;;;;;;;;;;5041984;28;20120;-76
2022/05/13 02:58:13;;;;;;;0.47;0.47;;;;;;;;;;5046851;28;20128;-77
2022/05/13 03:00:39;;;;;;;0.20;0.20;;;;;;;;;;5048264;28;20024;-76
2022/05/13 03:03:09;;;;;;;0.68;0.25;;;;;;;;;;5040587;28;20039;-76
2022/05/13 03:05:35;;;;;;;0.28;0.28;;;;;;;;;;5042428;28;20084;-76
2022/05/13 03:08:01;;;;;;;0.73;0.63;;;;;;;;;;5048867;28;20506;-76
2022/05/13 03:10:31;;;;;;;0.50;0.50;;;;;;;;;;5045672;28;20121;-77
2022/05/13 03:13:00;;;;;;;0.57;0.45;;;;;;;;;;5048188;28;20058;-77
2022/05/13 03:15:27;;;;;;;2.75;0.85;;;;;;;;;;5039644;28;20391;-76
2022/05/13 03:17:53;;;;;;;0.75;0.65;;;;;;;;;;5041738;28;20033;-76
2022/05/13 03:20:20;;;;;;;0.60;0.60;;;;;;;;;;5041625;28;20033;-76
2022/05/13 03:22:48;;;;;;;0.40;0.40;;;;;;;;;;5032429;28;20046;-76
2022/05/13 03:25:14;;;;;;;3.65;1.20;;;;;;;;;;5047354;28;20651;-76
2022/05/13 03:27:40;;;;;;;1.25;0.65;;;;;;;;;;5045271;28;20057;-76
2022/05/13 03:30:06;;;;;;;1.40;1.17;;;;;;;;;;5049295;28;20098;-76
2022/05/13 03:32:32;;;;;;;0.38;0.38;;;;;;;;;;5044259;28;20501;-76
2022/05/13 03:34:59;;;;;;;13.52;1.65;;;;;;;;;;5043192;28;20029;-77
2022/05/13 03:37:25;;;;;;;0.70;0.70;;;;;;;;;;5048216;28;20293;-76
2022/05/13 03:39:51;;;;;;;0.60;0.50;;;;;;;;;;5048308;28;20029;-77
2022/05/13 03:42:17;;;;;;;0.75;0.70;;;;;;;;;;5033730;28;20392;-77
2022/05/13 03:44:43;;;;;;;0.32;0.30;;;;;;;;;;5048100;28;20102;-76
2022/05/13 03:47:09;;;;;;;0.98;0.90;;;;;;;;;;5040087;28;20038;-77
2022/05/13 03:49:35;;;;;;;0.60;0.45;;;;;;;;;;5045049;28;20102;-77
2022/05/13 03:52:01;;;;;;;0.30;0.30;;;;;;;;;;5041012;28;20522;-76
2022/05/13 03:54:27;;;;;;;1.40;1.10;;;;;;;;;;5048924;28;20112;-77
2022/05/13 03:56:53;;;;;;;0.63;0.63;;;;;;;;;;5048899;28;20064;-76
2022/05/13 03:59:19;;;;;;;0.47;0.47;;;;;;;;;;5040448;28;20100;-76
2022/05/13 04:01:44;;;;;;;0.50;0.50;;;;;;;;;;5042894;28;20059;-77
2022/05/13 04:04:10;;;;;;;6.00;0.43;;;;;;;;;;5045958;28;20575;-76
2022/05/13 04:09:21;;;;;;;2.38;0.95;;;;;;;;;;5047100;28;20411;-76
2022/05/13 04:16:04;;;;;;;0.63;0.63;;;;;;;;;;5047031;28;20025;-76
2022/05/13 04:17:17;;;;;;;0.30;0.30;;;;;;;;;;5046990;28;20113;-76
2022/05/13 04:19:43;;;;;;;4.13;1.42;;;;;;;;;;5043689;28;20104;-76
2022/05/13 04:22:13;;;;;;;1.13;1.00;;;;;;;;;;5046344;28;20021;-76
2022/05/13 04:24:39;;;;;;;9.73;1.75;;;;;;;;;;5044997;28;20021;-76
2022/05/13 04:27:05;;;;;;;0.73;0.38;;;;;;;;;;5040625;28;20120;-75
2022/05/13 04:29:33;;;;;;;0.98;0.90;;;;;;;;;;5044361;28;20467;-76
2022/05/13 04:31:59;;;;;;;0.60;0.60;;;;;;;;;;5034179;28;20033;-76
2022/05/13 04:34:25;;;;;;;0.47;0.47;;;;;;;;;;5042688;28;20037;-76
2022/05/13 04:36:51;;;;;;;1.85;0.80;;;;;;;;;;5041403;28;20029;-76
2022/05/13 04:39:17;;;;;;;0.77;0.77;;;;;;;;;;5047104;28;20017;-76
2022/05/13 04:44:27;;;;;;;0.98;0.77;;;;;;;;;;5047604;28;20074;-77
2022/05/13 04:46:53;;;;;;;0.63;0.63;;;;;;;;;;5047885;28;20037;-77
2022/05/13 04:49:19;;;;;;;2.40;1.30;;;;;;;;;;5047657;28;20112;-78
2022/05/13 04:51:45;;;;;;;1.67;1.52;;;;;;;;;;5047445;28;20438;-77
2022/05/13 04:54:11;;;;;;;1.05;1.05;;;;;;;;;;5048236;28;20083;-77
2022/05/13 04:56:37;;;;;;;0.57;0.57;;;;;;;;;;5047571;28;20440;-77
2022/05/13 04:59:04;;;;;;;1.42;1.02;;;;;;;;;;5042347;28;20033;-78
2022/05/13 05:01:30;;;;;;;0.50;0.40;;;;;;;;;;5044767;28;20032;-77
2022/05/13 05:03:56;;;;;;;1.10;1.00;;;;;;;;;;5047019;28;20037;-77
2022/05/13 05:06:21;;;;;;;1.42;0.88;;;;;;;;;;5041965;28;20029;-77
2022/05/13 05:08:48;;;;;;;2.30;1.08;;;;;;;;;;5040488;28;20099;-77
2022/05/13 05:11:14;;;;;;;0.90;0.90;;;;;;;;;;5043403;28;20544;-77
2022/05/13 05:13:42;;;;;;;0.80;0.80;;;;;;;;;;5044943;28;20060;-78
2022/05/13 05:16:08;;;;;;;0.77;0.77;;;;;;;;;;5046710;28;20834;-77
2022/05/13 05:18:35;;;;;;;1.02;0.90;;;;;;;;;;5047468;28;20069;-77
2022/05/13 05:21:01;;;;;;;1.17;1.08;;;;;;;;;;5045140;28;20388;-77
2022/05/13 05:23:29;;;;;;;3.33;1.85;;;;;;;;;;5047745;28;20036;-78
2022/05/13 05:25:55;;;;;;;0.93;0.93;;;;;;;;;;5039179;28;20021;-77
2022/05/13 05:28:21;;;;;;;1.45;0.80;;;;;;;;;;5040680;28;20567;-77
2022/05/13 05:30:47;;;;;;;2.97;1.00;;;;;;;;;;5050225;28;20036;-78
2022/05/13 05:33:13;;;;;;;0.80;0.80;;;;;;;;;;5050890;28;20037;-77
2022/05/13 05:35:39;;;;;;;1.67;1.15;;;;;;;;;;5049302;28;20080;-78
2022/05/13 05:38:07;;;;;;;1.05;0.98;;;;;;;;;;5049618;28;20032;-78
2022/05/13 05:40:33;;;;;;;2.55;1.73;;;;;;;;;;5043106;28;20032;-79
2022/05/13 05:43:02;;;;;;;0.95;0.80;;;;;;;;;;5050328;28;20025;-78
2022/05/13 05:45:28;;;;;;;0.82;0.73;;;;;;;;;;5050265;28;20031;-77
2022/05/13 05:47:54;;;;;;;8.95;1.05;;;;;;;;;;5051372;28;20025;-78
2022/05/13 05:50:20;;;;;;;0.88;0.75;;;;;;;;;;5046239;28;20028;-77
2022/05/13 05:52:46;;;;;;;2.97;0.98;;;;;;;;;;5051101;28;20387;-77
2022/05/13 05:57:58;;;;;;;1.00;0.90;;;;;;;;;;5050827;28;20040;-77
2022/05/13 06:00:24;;;;;;;1.52;0.88;;;;;;;;;;5047087;28;20025;-76
2022/05/13 06:02:50;;;;;;;1.25;1.15;;;;;;;;;;5043117;28;20177;-75
2022/05/13 06:05:16;;;;;;;1.02;0.93;;;;;;;;;;5050060;28;20419;-76
2022/05/13 06:07:42;;;;;;;1.52;0.65;;;;;;;;;;5051394;28;20048;-75
2022/05/13 06:10:08;;;;;;;0.93;0.80;;;;;;;;;;5042323;28;20039;-75
2022/05/13 06:12:34;;;;;;;2.42;1.63;;;;;;;;;;5038113;28;20136;-76
2022/05/13 06:15:01;;;;;;;0.60;0.60;;;;;;;;;;5043168;28;20120;-75
2022/05/13 06:17:27;;;;;;;1.90;1.08;;;;;;;;;;5049133;28;20029;-76
2022/05/13 06:19:53;;;;;;;1.70;1.52;;;;;;;;;;5042796;28;20025;-75
2022/05/13 06:22:19;;;;;;;0.75;0.60;;;;;;;;;;5049494;28;20025;-82
2022/05/13 06:24:45;;;;;;;1.05;0.90;;;;;;;;;;5045220;28;20021;-82
2022/05/13 06:27:10;;;;;;;1.25;1.15;;;;;;;;;;5045383;28;20494;-79
2022/05/13 06:29:36;;;;;;;1.15;1.02;;;;;;;;;;5048277;28;20064;-78
2022/05/13 06:32:03;;;;;;;3.42;1.95;;;;;;;;;;5046238;28;20110;-78
2022/05/13 06:34:29;;;;;;;0.80;0.80;;;;;;;;;;5046053;28;20036;-78
2022/05/13 06:36:54;;;;;;;0.77;0.75;;;;;;;;;;5048068;28;20078;-79
2022/05/13 06:39:20;;;;;;;5.82;2.30;;;;;;;;;;5047158;28;20041;-78
2022/05/13 06:41:47;;;;;;;0.50;0.50;;;;;;;;;;5039297;28;20502;-80
2022/05/13 06:44:15;;;;;;;2.17;1.00;;;;;;;;;;5041291;28;20022;-78
2022/05/13 06:46:41;;;;;;;3.33;0.93;;;;;;;;;;5048923;28;20365;-76
2022/05/13 06:49:07;;;;;;;1.02;0.75;;;;;;;;;;5045051;28;20128;-77
2022/05/13 06:51:34;;;;;;;1.13;0.77;;;;;;;;;;5036258;28;20506;-76
2022/05/13 06:54:03;;;;;;;1.42;1.25;;;;;;;;;;5042341;28;20475;-77
2022/05/13 06:56:30;;;;;;;0.63;0.43;;;;;;;;;;5049716;28;20078;-77
2022/05/13 06:58:56;;;;;;;1.27;1.20;;;;;;;;;;5047220;28;20029;-78
2022/05/13 07:01:22;;;;;;;2.75;1.05;;;;;;;;;;5041331;28;20027;-77
2022/05/13 07:03:48;;;;;;;1.85;0.90;;;;;;;;;;5050234;28;20045;-78
2022/05/13 07:06:17;;;;;;;2.30;1.85;;;;;;;;;;5043374;28;20085;-78
2022/05/13 07:08:46;;;;;;;3.20;1.50;;;;;;;;;;5050010;28;20032;-80
2022/05/13 07:11:12;;;;;;;0.90;0.70;;;;;;;;;;5040710;28;20440;-77
2022/05/13 07:13:38;;;;;;;0.93;0.80;;;;;;;;;;5048513;28;20395;-78
2022/05/13 07:16:04;;;;;;;0.75;0.75;;;;;;;;;;5046536;28;20037;-79
2022/05/13 07:18:30;;;;;;;1.23;1.13;;;;;;;;;;5038299;28;20074;-82
2022/05/13 07:20:56;;;;;;;1.15;0.47;;;;;;;;;;5049028;28;20025;-82
2022/05/13 07:23:22;;;;;;;4.55;1.25;;;;;;;;;;5050540;28;20025;-83
2022/05/13 07:25:48;;;;;;;1.58;1.48;;;;;;;;;;5048217;28;20036;-83
2022/05/13 07:28:14;;;;;;;3.72;1.95;;;;;;;;;;5045969;28;20082;-83
2022/05/13 07:30:40;;;;;;;2.78;1.58;;;;;;;;;;5045704;28;20083;-83
2022/05/13 07:33:06;;;;;;;0.82;0.82;;;;;;;;;;5050218;28;20059;-83
2022/05/13 07:35:32;;;;;;;2.25;1.45;;;;;;;;;;5048070;28;20052;-83
2022/05/13 07:37:58;;;;;;;2.83;1.95;;;;;;;;;;5046932;28;20020;-82
2022/05/13 07:43:09;;;;;;;1.40;1.30;;;;;;;;;;5046351;28;20032;-83
2022/05/13 07:45:35;;;;;;;3.65;2.00;;;;;;;;;;5047500;28;20017;-82
2022/05/13 07:48:02;;;;;;;0.95;0.80;;;;;;;;;;5045111;28;20033;-81
2022/05/13 07:50:32;;;;;;;2.17;1.42;;;;;;;;;;5036220;28;20037;-84
2022/05/13 07:53:04;;;;;;;1.38;1.27;;;;;;;;;;5044239;28;20465;-83
2022/05/13 07:55:31;;;;;;;1.65;1.25;;;;;;;;;;5042410;28;20128;-82
2022/05/13 07:57:57;;;;;;;3.22;1.10;;;;;;;;;;5046141;28;20486;-84
2022/05/13 08:00:33;;;;;;;1.20;0.70;;;;;;;;;;5048106;28;20060;-84
2022/05/13 08:03:00;;;;;;;1.20;1.10;;;;;;;;;;5043626;28;20035;-83
2022/05/13 08:05:27;;;;;;;1.65;1.20;;;;;;;;;;5046061;28;20036;-82
2022/05/13 08:08:07;;;;;;;1.00;0.95;;;;;;;;;;5047548;28;20631;-83
2022/05/13 08:10:34;;;;;;;1.60;0.88;;;;;;;;;;5040455;28;20120;-80
2022/05/13 08:13:00;;;;;;;2.08;1.10;;;;;;;;;;5041984;28;20026;-79
2022/05/13 08:15:25;;;;;;;3.35;1.48;;;;;;;;;;5045475;28;20031;-74
2022/05/13 08:17:51;;;;;;;2.53;1.63;;;;;;;;;;5040469;28;20438;-74
2022/05/13 08:20:17;;;;;;;3.60;1.40;;;;;;;;;;5038341;28;20097;-79
2022/05/13 08:22:45;;;;;;;1.98;1.55;;;;;;;;;;5047216;28;20371;-75
2022/05/13 08:25:10;;;;;;;1.50;1.33;;;;;;;;;;5042285;28;20020;-83
2022/05/13 08:27:36;;;;;;;21.60;1.83;;;;;;;;;;5037271;28;20447;-78
2022/05/13 08:30:03;;;;;;;1.63;1.52;;;;;;;;;;5039436;28;20041;-75
2022/05/13 08:32:29;;;;;;;1.52;1.13;;;;;;;;;;5040868;28;20032;-74
2022/05/13 08:34:55;;;;;;;1.83;1.40;;;;;;;;;;5046599;28;20400;-74
2022/05/13 08:37:21;;;;;;;1.40;1.10;;;;;;;;;;5045197;28;20036;-75
2022/05/13 08:39:47;;;;;;;2.70;1.10;;;;;;;;;;5045447;28;20028;-75
2022/05/13 08:42:13;;;;;;;2.22;2.03;;;;;;;;;;5045806;28;20029;-76
2022/05/13 08:44:39;;;;;;;1.83;1.45;;;;;;;;;;5037971;28;20025;-75
2022/05/13 08:47:12;;;;;;;8.50;1.40;;;;;;;;;;5049245;28;20035;-75
2022/05/13 08:49:48;;;;;;;1.25;1.15;;;;;;;;;;5040928;28;20063;-75
2022/05/13 08:55:24;;;;;;;0.80;0.80;;;;;;;;;;5044484;28;20116;-74
2022/05/13 08:57:51;;;;;;;1.38;1.15;;;;;;;;;;5045552;28;20020;-75
2022/05/13 09:00:24;;;;;;;1.63;1.10;;;;;;;;;;5039409;28;20048;-75
2022/05/13 09:02:53;;;;;;;1.05;0.90;;;;;;;;;;5044695;28;20289;-74
2022/05/13 09:05:30;;;;;;;2.10;1.17;;;;;;;;;;5048641;28;20041;-76
2022/05/13 09:07:56;;;;;;;1.35;0.95;;;;;;;;;;5047196;28;20065;-76
2022/05/13 09:10:23;;;;;;;0.85;0.68;;;;;;;;;;5047672;28;20048;-81
2022/05/13 09:12:58;;;;;;;1.20;1.05;;;;;;;;;;5047951;28;20024;-80
2022/05/13 09:15:27;;;;;;;1.30;1.00;;;;;;;;;;5048105;28;20090;-83
2022/05/13 09:18:04;;;;;;;0.80;0.75;;;;;;;;;;5039911;28;20029;-83
2022/05/13 09:20:38;;;;;;;1.88;1.30;;;;;;;;;;5045890;28;20017;-77
2022/05/13 09:23:09;;;;;;;3.95;1.35;;;;;;;;;;5046877;28;20025;-76
2022/05/13 09:25:37;;;;;;;0.93;0.93;;;;;;;;;;5044266;28;20097;-76
2022/05/13 09:28:10;;;;;;;1.15;1.02;;;;;;;;;;5037519;28;20284;-76
2022/05/13 09:30:38;;;;;;;0.50;0.50;;;;;;;;;;5041267;28;20044;-76
2022/05/13 09:33:23;;;;;;;0.70;0.60;;;;;;;;;;5042003;28;20045;-76
2022/05/13 09:35:54;;;;;;;0.68;0.55;;;;;;;;;;5040312;28;20553;-76
2022/05/13 09:38:23;;;;;;;0.67;0.67;;;;;;;;;;5038889;28;20033;-75
2022/05/13 09:40:57;;;;;;;2.60;1.00;;;;;;;;;;5040171;28;20654;-75
2022/05/13 09:43:32;;;;;;;4.35;1.33;;;;;;;;;;5041191;28;20214;-80
2022/05/13 09:46:03;;;;;;;1.02;0.30;;;;;;;;;;5041209;28;20077;-79
2022/05/13 09:48:29;;;;;;;1.52;0.70;;;;;;;;;;5039807;28;20028;-80
2022/05/13 09:50:59;;;;;;;1.55;1.13;;;;;;;;;;5041436;28;20047;-81
2022/05/13 09:53:28;;;;;;;0.65;0.60;;;;;;;;;;5039681;28;20527;-79
2022/05/13 09:55:55;;;;;;;5.47;1.55;;;;;;;;;;5039606;28;20037;-80
2022/05/13 09:58:21;;;;;;;0.77;0.77;;;;;;;;;;5040279;28;20033;-79
2022/05/13 10:00:49;;;;;;;0.90;0.90;;;;;;;;;;5041390;28;20032;-81
2022/05/13 10:03:18;;;;;;;1.02;0.93;;;;;;;;;;5039375;28;20017;-79
2022/05/13 10:05:45;;;;;;;1.75;1.38;;;;;;;;;;5040019;28;20028;-79
2022/05/13 10:08:15;;;;;;;1.02;0.40;;;;;;;;;;5040210;28;20510;-79
2022/05/13 10:13:59;;;;;;;1.92;1.30;;;;;;;;;;5039747;28;20040;-80
2022/05/13 10:16:43;;;;;;;0.98;0.77;;;;;;;;;;5040485;28;20546;-79
2022/05/13 10:19:23;;;;;;;0.80;0.80;;;;;;;;;;5040293;28;20542;-79
2022/05/13 10:22:05;;;;;;;1.13;0.60;;;;;;;;;;5040936;28;20017;-82
2022/05/13 10:24:50;;;;;;;0.38;0.38;;;;;;;;;;5041294;28;20036;-80
2022/05/13 10:27:22;;;;;;;0.80;0.77;;;;;;;;;;5039836;28;20075;-80
2022/05/13 10:29:50;;;;;;;3.53;0.90;;;;;;;;;;5041179;28;20025;-80
2022/05/13 10:32:26;;;;;;;0.73;0.73;;;;;;;;;;5039075;28;20037;-80
2022/05/13 10:34:54;;;;;;;0.85;0.40;;;;;;;;;;5039985;28;20029;-81
2022/05/13 10:37:24;;;;;;;0.43;0.43;;;;;;;;;;5039500;28;20489;-81
2022/05/13 10:39:51;;;;;;;0.32;0.32;;;;;;;;;;5040562;28;20033;-80
2022/05/13 10:42:24;;;;;;;4.22;0.93;;;;;;;;;;5039149;28;20067;-81
2022/05/13 10:44:59;;;;;;;1.13;0.98;;;;;;;;;;5039703;28;20049;-80
2022/05/13 10:47:28;;;;;;;0.70;0.63;;;;;;;;;;5039611;28;20021;-81
2022/05/13 10:49:54;;;;;;;1.95;1.42;;;;;;;;;;5040199;28;20022;-81
2022/05/13 10:52:23;;;;;;;0.63;0.63;;;;;;;;;;5040320;28;20079;-80
2022/05/13 10:54:52;;;;;;;0.50;0.50;;;;;;;;;;5056187;28;20117;-80
2022/05/13 10:57:33;;;;;;;1.02;0.93;;;;;;;;;;5052288;28;20102;-79
2022/05/13 11:00:16;;;;;;;0.60;0.60;;;;;;;;;;5039994;28;20030;-80
2022/05/13 11:02:42;;;;;;;0.40;0.40;;;;;;;;;;5038814;28;20431;-80
2022/05/13 11:05:13;;;;;;;0.52;0.45;;;;;;;;;;5040088;28;20116;-81
2022/05/13 11:07:39;;;;;;;;;;;;;;;;;;5039980;28;20049;-79
2022/05/13 11:10:17;;;;;;;1.08;0.57;;;;;;;;;;5039394;28;19936;-80
2022/05/13 11:12:43;;;;;;;1.60;0.80;;;;;;;;;;5039128;28;20032;-80
2022/05/13 11:15:14;;;;;;;0.40;0.40;;;;;;;;;;5041014;28;20707;-80
2022/05/13 11:17:59;;;;;;;0.95;0.82;;;;;;;;;;5041707;28;20029;-80
2022/05/13 11:20:40;;;;;;;1.17;0.88;;;;;;;;;;5044242;28;20087;-76
2022/05/13 11:23:26;;;;;;;2.13;0.40;;;;;;;;;;5040713;28;20029;-76
2022/05/13 11:26:12;;;;;;;0.75;0.60;;;;;;;;;;5042159;28;20448;-76
2022/05/13 11:28:56;;;;;;;1.00;0.52;;;;;;;;;;5038420;28;20074;-76
2022/05/13 11:31:45;;;;;;;0.75;0.75;;;;;;;;;;5045059;28;20511;-77
2022/05/13 11:34:11;;;;;;;0.70;0.57;;;;;;;;;;5047812;28;20032;-76
2022/05/13 11:36:41;;;;;;;3.00;0.85;;;;;;;;;;5048057;28;20483;-76
2022/05/13 11:39:19;;;;;;;0.40;0.40;;;;;;;;;;5049156;28;20467;-76
2022/05/13 11:41:51;;;;;;;0.60;0.60;;;;;;;;;;5048661;28;20017;-77
2022/05/13 11:44:19;;;;;;;1.38;0.90;;;;;;;;;;5041631;28;20610;-76
2022/05/13 11:46:48;;;;;;;2.55;0.98;;;;;;;;;;5043286;28;20395;-76
2022/05/13 11:49:17;;;;;;;0.40;0.40;;;;;;;;;;5049019;28;20021;-76
2022/05/13 11:51:43;;;;;;;0.57;0.40;;;;;;;;;;5048794;28;20472;-76
2022/05/13 11:54:17;;;;;;;0.30;0.25;;;;;;;;;;5048074;28;20036;-76
2022/05/13 11:56:46;;;;;;;0.75;0.70;;;;;;;;;;5048975;28;20021;-76
2022/05/13 11:59:38;;;;;;;0.63;0.35;;;;;;;;;;5048697;28;20055;-76
2022/05/13 12:02:08;;;;;;;0.20;0.20;;;;;;;;;;5032859;28;20501;-76
2022/05/13 12:04:36;;;;;;;0.43;0.43;;;;;;;;;;5042987;28;20053;-76
2022/05/13 12:07:21;;;;;;;0.60;0.60;;;;;;;;;;5029131;28;20030;-76
2022/05/13 12:09:49;;;;;;;0.40;0.40;;;;;;;;;;5032249;28;20033;-76
2022/05/13 12:12:29;;;;;;;0.52;0.30;;;;;;;;;;5028849;28;20018;-76
2022/05/13 12:15:18;;;;;;;0.35;0.30;;;;;;;;;;5042780;28;20017;-76
2022/05/13 12:18:05;;;;;;;0.80;0.68;;;;;;;;;;5048841;28;20039;-76
2022/05/13 12:20:48;;;;;;;0.80;0.43;;;;;;;;;;5036389;28;20029;-76
2022/05/13 12:23:23;;;;;;;0.77;0.60;;;;;;;;;;5028784;28;20026;-76
2022/05/13 12:25:55;;;;;;;0.30;0.20;;;;;;;;;;5028687;28;20024;-76
2022/05/13 12:28:21;;;;;;;1.20;0.80;;;;;;;;;;5028594;28;20026;-76
2022/05/13 12:30:49;;;;;;;0.93;0.45;;;;;;;;;;5042564;28;20072;-76
2022/05/13 12:33:20;;;;;;;0.40;0.35;;;;;;;;;;5048522;28;20072;-76
2022/05/13 12:38:59;;;;;;;2.83;0.52;;;;;;;;;;5047531;28;20040;-76
2022/05/13 12:41:25;;;;;;;0.55;0.35;;;;;;;;;;5046490;28;20063;-76
2022/05/13 12:43:54;;;;;;;0.40;0.40;;;;;;;;;;5035872;28;20110;-77
2022/05/13 12:46:22;;;;;;;0.50;0.30;;;;;;;;;;5048079;28;20028;-77
2022/05/13 12:49:17;;;;;;;0.47;0.40;;;;;;;;;;5048574;28;20021;-76
2022/05/13 12:51:46;;;;;;;2.30;0.98;;;;;;;;;;5036095;28;20037;-76
2022/05/13 12:54:15;;;;;;;0.80;0.45;;;;;;;;;;5041497;28;20052;-76
2022/05/13 12:56:44;;;;;;;1.08;0.55;;;;;;;;;;5048104;28;20115;-76
2022/05/13 12:59:24;;;;;;;0.55;0.43;;;;;;;;;;5038203;28;20384;-76
2022/05/13 13:01:51;;;;;;;0.28;0.28;;;;;;;;;;5036324;28;20021;-76
2022/05/13 13:04:22;;;;;;;0.93;0.80;;;;;;;;;;5035761;28;20049;-76
2022/05/13 13:06:48;;;;;;;0.30;0.30;;;;;;;;;;5029430;28;20025;-76
2022/05/13 13:09:34;;;;;;;0.20;0.20;;;;;;;;;;5044468;28;20287;-76
2022/05/13 13:12:18;;;;;;;0.63;0.63;;;;;;;;;;5039771;28;20083;-76
2022/05/13 13:14:48;;;;;;;6.32;0.82;;;;;;;;;;5028133;28;20036;-76
2022/05/13 13:17:27;;;;;;;1.63;0.70;;;;;;;;;;5028714;28;20021;-76
2022/05/13 13:19:57;;;;;;;1.17;0.70;;;;;;;;;;5040860;28;20029;-75
2022/05/13 13:22:24;;;;;;;0.20;0.20;;;;;;;;;;5028268;28;20021;-76
2022/05/13 13:24:50;;;;;;;1.75;0.95;;;;;;;;;;5038026;28;20029;-76
2022/05/13 13:27:18;;;;;;;0.22;0.22;;;;;;;;;;5029968;28;20056;-76
2022/05/13 13:29:44;;;;;;;0.20;0.20;;;;;;;;;;5046591;28;20472;-76
2022/05/13 13:32:18;;;;;;;0.28;0.28;;;;;;;;;;5045602;28;20043;-76
2022/05/13 13:34:50;;;;;;;0.60;0.40;;;;;;;;;;5047356;28;20028;-77
2022/05/13 13:37:17;;;;;;;0.52;0.52;;;;;;;;;;5046458;28;20037;-77
2022/05/13 13:39:43;;;;;;;0.38;0.38;;;;;;;;;;5041087;28;20396;-78
2022/05/13 13:42:10;;;;;;;0.63;0.63;;;;;;;;;;5044783;28;20033;-79
2022/05/13 13:44:37;;;;;;;1.65;0.77;;;;;;;;;;5046384;28;20060;-78
2022/05/13 13:47:05;;;;;;;0.65;0.40;;;;;;;;;;5046392;28;20021;-79
2022/05/13 13:49:35;;;;;;;0.30;0.30;;;;;;;;;;5041396;28;20304;-79
2022/05/13 13:52:03;;;;;;;0.40;0.40;;;;;;;;;;5033965;28;20102;-78
2022/05/13 13:54:38;;;;;;;3.63;0.50;;;;;;;;;;5047313;28;20032;-78
2022/05/13 13:57:07;;;;;;;0.80;0.68;;;;;;;;;;5051266;28;20021;-78
2022/05/13 13:59:41;;;;;;;0.65;0.65;;;;;;;;;;5049107;28;20032;-78
2022/05/13 14:02:08;;;;;;;0.50;0.50;;;;;;;;;;5043746;28;20025;-78
2022/05/13 14:04:34;;;;;;;11.85;1.23;;;;;;;;;;5036523;28;20048;-80
2022/05/13 14:07:01;;;;;;;0.60;0.60;;;;;;;;;;5051318;28;20025;-78
2022/05/13 14:09:38;;;;;;;3.83;0.80;;;;;;;;;;5048936;28;20055;-80
2022/05/13 14:12:05;;;;;;;0.20;0.20;;;;;;;;;;5031191;28;20182;-78
2022/05/13 14:14:31;;;;;;;7.07;0.90;;;;;;;;;;5032456;28;20021;-78
2022/05/13 14:16:59;;;;;;;0.55;0.55;;;;;;;;;;5046134;28;20025;-78
2022/05/13 14:19:26;;;;;;;1.58;0.80;;;;;;;;;;5039839;28;20021;-77
2022/05/13 14:22:03;;;;;;;2.05;0.85;;;;;;;;;;5044239;28;20115;-76
2022/05/13 14:24:40;;;;;;;0.90;0.73;;;;;;;;;;5044055;28;20029;-76
2022/05/13 14:27:09;;;;;;;9.48;1.75;;;;;;;;;;5039297;28;20037;-76
2022/05/13 14:29:35;;;;;;;0.85;0.63;;;;;;;;;;5037121;28;20526;-76
2022/05/13 14:32:06;;;;;;;0.10;0.10;;;;;;;;;;5035576;28;20035;-76
2022/05/13 14:34:32;;;;;;;0.75;0.75;;;;;;;;;;5037174;28;20025;-76
2022/05/13 14:37:00;;;;;;;3.28;0.93;;;;;;;;;;5041637;28;20025;-76
2022/05/13 14:42:16;;;;;;;0.68;0.63;;;;;;;;;;5040534;28;20080;-76
2022/05/13 14:44:44;;;;;;;0.28;0.28;;;;;;;;;;5032946;28;20045;-76
2022/05/13 14:47:23;;;;;;;4.97;0.93;;;;;;;;;;5039462;28;20021;-76
2022/05/13 14:50:00;;;;;;;0.55;0.55;;;;;;;;;;5048380;28;20391;-76
2022/05/13 14:52:35;;;;;;;0.40;0.40;;;;;;;;;;5036167;28;20025;-76
2022/05/13 14:55:03;;;;;;;1.38;0.63;;;;;;;;;;5047402;28;20410;-75
2022/05/13 14:57:30;;;;;;;0.10;0.10;;;;;;;;;;5041172;28;20064;-75
2022/05/13 15:00:01;;;;;;;0.63;0.40;;;;;;;;;;5030619;28;20029;-75
2022/05/13 15:02:34;;;;;;;0.25;0.25;;;;;;;;;;5029653;28;20094;-75
2022/05/13 15:05:26;;;;;;;0.68;0.65;;;;;;;;;;5043811;28;20080;-75
2022/05/13 15:07:53;;;;;;;0.28;0.28;;;;;;;;;;5013462;28;20372;-76
2022/05/13 15:10:24;;;;;;;2.92;1.02;;;;;;;;;;5040295;28;20627;-75
2022/05/13 15:12:50;;;;;;;0.20;0.17;;;;;;;;;;5043813;28;20029;-76
2022/05/13 15:15:24;;;;;;;0.25;0.25;;;;;;;;;;5047276;28;20035;-75
2022/05/13 15:17:52;;;;;;;0.77;0.77;;;;;;;;;;5046159;28;20036;-75
2022/05/13 15:20:19;;;;;;;0.35;0.35;;;;;;;;;;5033338;28;20507;-75